Uraga Maru — JD2163 — position and weather

sailwx.info

Track history (hours):
 
Tides and Currents Weather Stations Pressure Air Temp Water Temp Dewpoint Dewpoint Depression Visibility Wind Speed Wind Dir Waves Ship Positions

Uraga Maru

Last reported at 2016-Aug-30 08:34 UTC. Time now 2016-Aug-30 09:09 UTC.
Position N 35°23' E 139°42'.

Length 40 m; draft 2.8 m.

Type: Tug. MMSI: 431101119.

Date/timePositionNaut miles runAvg speedWind from/ knotsBaromVisibWave heightAir tempDewpointWater temp
2016-Aug-30 08:34N 35°23' E 139°42'1010.3
2016-Aug-30 07:34N 35°13' E 139°47'4 4.4
2016-Aug-30 06:33N 35°17' E 139°44'3 2.9
2016-Aug-30 05:29N 35°17' E 139°41'0 0.0
2016-Aug-30 01:30N 35°17' E 139°41'0 0.0
2016-Aug-30 00:31N 35°17' E 139°41'0 0.0
2016-Aug-29 23:33N 35°17' E 139°41'0 0.0
2016-Aug-29 20:31N 35°17' E 139°41'0 0.0
2016-Aug-29 19:32N 35°17' E 139°41'0 0.0
2016-Aug-29 18:32N 35°17' E 139°41'0 0.0
2016-Aug-29 17:26N 35°17' E 139°41'0 0.0
2016-Aug-29 16:33N 35°17' E 139°41'0 0.0
2016-Aug-29 15:33N 35°17' E 139°41'0 0.0
2016-Aug-29 14:33N 35°17' E 139°41'0 0.0
2016-Aug-29 13:34N 35°17' E 139°41'0 0.0
2016-Aug-29 12:33N 35°17' E 139°41'0 0.0
2016-Aug-29 11:27N 35°17' E 139°41'0 0.0
2016-Aug-29 03:30N 35°17' E 139°41'0 0.0
2016-Aug-28 23:13N 35°17' E 139°41'4 5.7
2016-Aug-28 22:33N 35°16' E 139°45'3 2.8
2016-Aug-28 21:32N 35°13' E 139°46'1010.2
2016-Aug-28 20:34N 35°23' E 139°43'5 5.3
2016-Aug-28 19:33N 35°18' E 139°44'4 3.9
2016-Aug-28 18:26N 35°13' E 139°43'0 0.0
2016-Aug-28 16:29N 35°13' E 139°43'0 0.0
2016-Aug-28 11:24N 35°13' E 139°43'4 4.5
2016-Aug-28 10:33N 35°17' E 139°45'7 7.5
2016-Aug-28 09:33N 35°24' E 139°44'0 0.1
2016-Aug-28 08:33N 35°24' E 139°45'2 2.0
2016-Aug-28 07:33N 35°22' E 139°45'1111.3
2016-Aug-28 06:33N 35°11' E 139°47'6 2.8
2016-Aug-28 04:32N 35°17' E 139°45'1111.6
2016-Aug-28 03:34N 35°28' E 139°48'8 7.8
2016-Aug-28 02:33N 35°29' E 139°58'3 2.6
2016-Aug-28 01:33N 35°28' E 139°55'1010.3
2016-Aug-28 00:33N 35°21' E 139°46'5 5.3
2016-Aug-27 23:32N 35°17' E 139°41'0 0.0
2016-Aug-27 22:33N 35°17' E 139°41'0 0.0
2016-Aug-27 21:33N 35°17' E 139°41'0 0.0
2016-Aug-27 20:33N 35°17' E 139°41'0 0.0
2016-Aug-27 19:33N 35°17' E 139°41'0 0.0
2016-Aug-27 18:33N 35°17' E 139°41'0 0.0
2016-Aug-27 17:32N 35°17' E 139°41'0 0.0
2016-Aug-27 16:33N 35°17' E 139°41'0 0.0
2016-Aug-27 15:33N 35°17' E 139°41'0 0.0
2016-Aug-27 14:33N 35°17' E 139°41'0 0.0
2016-Aug-27 13:33N 35°17' E 139°41'0 0.0
2016-Aug-27 12:33N 35°17' E 139°41'0 0.0
2016-Aug-27 11:33N 35°17' E 139°41'0 0.0
2016-Aug-27 10:32N 35°17' E 139°41'0 0.0
2016-Aug-27 09:31N 35°17' E 139°41'0 0.0
2016-Aug-27 08:32N 35°17' E 139°41'0 0.0
2016-Aug-27 07:33N 35°17' E 139°41'0 0.0
2016-Aug-27 06:33N 35°17' E 139°41'0 0.0
2016-Aug-27 04:33N 35°17' E 139°41'0 0.0
2016-Aug-27 03:33N 35°17' E 139°41'6 5.9
2016-Aug-27 02:33N 35°13' E 139°46'1010.1
2016-Aug-27 01:34N 35°23' E 139°42'8 7.6
2016-Aug-27 00:33N 35°29' E 139°47'6 6.3
2016-Aug-26 23:33N 35°23' E 139°46'1111.5
2016-Aug-26 22:34N 35°11' E 139°47'4 3.4
2016-Aug-26 21:27N 35°13' E 139°43'3 2.8
2016-Aug-26 20:33N 35°13' E 139°46'10 9.6
2016-Aug-26 19:34N 35°22' E 139°42'2 1.6
2016-Aug-26 18:33N 35°20' E 139°42'3 3.3
2016-Aug-26 17:33N 35°17' E 139°41'0 0.0
2016-Aug-26 16:32N 35°17' E 139°41'0 0.0
2016-Aug-26 15:31N 35°17' E 139°41'0 0.0
2016-Aug-26 14:33N 35°17' E 139°41'0 0.0
2016-Aug-26 13:31N 35°17' E 139°41'5 5.4
2016-Aug-26 12:30N 35°14' E 139°46'9 9.0
2016-Aug-26 11:33N 35°22' E 139°42'3 2.7
2016-Aug-26 10:33N 35°24' E 139°45'0 0.0
2016-Aug-26 09:33N 35°24' E 139°45'0 0.0
2016-Aug-26 08:33N 35°24' E 139°45'5 5.1
2016-Aug-26 07:33N 35°19' E 139°44'8 8.2
2016-Aug-26 06:33N 35°11' E 139°47'15 7.6
2016-Aug-26 04:34N 35°26' E 139°44'3 2.9
2016-Aug-26 03:34N 35°23' E 139°46'1110.8
2016-Aug-26 02:33N 35°12' E 139°47'3 3.3
2016-Aug-26 01:33N 35°13' E 139°43'5 4.7
2016-Aug-26 00:34N 35°18' E 139°43'2 2.1
2016-Aug-25 23:33N 35°17' E 139°41'0 0.0
2016-Aug-25 22:34N 35°17' E 139°41'0 0.0
2016-Aug-25 21:24N 35°17' E 139°41'0 0.0
2016-Aug-25 17:13N 35°17' E 139°41'0 0.0
2016-Aug-25 16:31N 35°17' E 139°41'0 0.0
2016-Aug-25 15:32N 35°17' E 139°41'0 0.0
2016-Aug-25 14:33N 35°17' E 139°41'0 0.0
2016-Aug-25 06:07N 35°17' E 139°41'0 0.0
2016-Aug-25 04:32N 35°17' E 139°41'0 0.0
2016-Aug-25 03:33N 35°17' E 139°41'0 0.0
2016-Aug-25 02:31N 35°17' E 139°41'2 2.6
2016-Aug-25 01:34N 35°19' E 139°42'2 2.3
2016-Aug-25 00:33N 35°20' E 139°44'1010.2
2016-Aug-24 23:33N 35°10' E 139°47'8 8.5
2016-Aug-24 22:34N 35°18' E 139°43'5 4.6
2016-Aug-24 21:33N 35°22' E 139°44'4 3.8
2016-Aug-24 20:33N 35°19' E 139°44'8 7.7
2016-Aug-24 19:32N 35°11' E 139°47'4 3.6
2016-Aug-24 18:26N 35°13' E 139°43'0 0.0
2016-Aug-24 17:24N 35°13' E 139°43'0 0.0
2016-Aug-24 16:30N 35°13' E 139°43'0 0.0
2016-Aug-24 15:31N 35°13' E 139°43'0 0.0
2016-Aug-24 14:33N 35°13' E 139°43'0 0.0
2016-Aug-24 13:27N 35°13' E 139°43'0 0.0
2016-Aug-24 12:33N 35°13' E 139°43'0 0.0
2016-Aug-24 11:26N 35°13' E 139°43'4 4.3
2016-Aug-24 10:33N 35°17' E 139°45'1110.5
2016-Aug-24 09:33N 35°27' E 139°42'5 5.3
2016-Aug-24 08:33N 35°28' E 139°48'5 4.7
2016-Aug-24 07:33N 35°30' E 139°54'1111.3
2016-Aug-24 06:33N 35°21' E 139°45'8 4.1
2016-Aug-24 04:33N 35°13' E 139°43'0 0.0
2016-Aug-24 03:33N 35°13' E 139°43'6 5.7
2016-Aug-24 02:33N 35°19' E 139°43'9 8.8
2016-Aug-24 01:33N 35°28' E 139°44'6 6.3
2016-Aug-24 00:33N 35°22' E 139°42'5 2.4
2016-Aug-23 22:33N 35°17' E 139°41'2 2.1
2016-Aug-23 21:33N 35°18' E 139°43'2 2.2
2016-Aug-23 20:33N 35°17' E 139°41'0 0.0
2016-Aug-23 19:33N 35°17' E 139°41'0 0.0
2016-Aug-23 18:33N 35°17' E 139°41'0 0.0
2016-Aug-23 17:33N 35°17' E 139°41'0 0.0
2016-Aug-23 16:33N 35°17' E 139°41'0 0.0
2016-Aug-23 15:33N 35°17' E 139°41'0 0.0
2016-Aug-23 14:33N 35°17' E 139°41'0 0.0
2016-Aug-23 13:33N 35°17' E 139°41'0 0.0
2016-Aug-23 12:27N 35°17' E 139°41'0 0.0
2016-Aug-23 11:26N 35°17' E 139°41'0 0.0
2016-Aug-23 10:24N 35°17' E 139°41'0 0.0
2016-Aug-23 09:31N 35°17' E 139°41'0 0.0
2016-Aug-23 08:33N 35°17' E 139°41'0 0.0
2016-Aug-23 07:33N 35°17' E 139°41'0 0.0
2016-Aug-23 06:33N 35°17' E 139°41'0 0.2
2016-Aug-23 05:33N 35°17' E 139°41'7 7.2
2016-Aug-23 04:33N 35°23' E 139°46'8 8.3
2016-Aug-23 03:33N 35°14' E 139°47'1 1.1
2016-Aug-23 02:19N 35°15' E 139°46'5 1.6
2016-Aug-22 23:23N 35°17' E 139°41'1 1.4
2016-Aug-22 22:33N 35°17' E 139°39'7 6.9
2016-Aug-22 21:33N 35°23' E 139°44'7 7.1
2016-Aug-22 20:33N 35°16' E 139°46'1 1.4
2016-Aug-22 19:34N 35°15' E 139°46'5 4.7
2016-Aug-22 18:33N 35°17' E 139°41'0 0.0
2016-Aug-22 17:27N 35°17' E 139°41'0 0.0
2016-Aug-22 16:33N 35°17' E 139°41'0 0.0
2016-Aug-22 15:30N 35°17' E 139°41'0 0.0
2016-Aug-22 14:19N 35°17' E 139°41'0 0.0
2016-Aug-22 13:19N 35°17' E 139°41'0 0.0
2016-Aug-22 12:26N 35°17' E 139°41'0 0.0
2016-Aug-22 11:20N 35°17' E 139°41'0 0.0
2016-Aug-22 10:31N 35°17' E 139°41'1 0.3
2016-Aug-22 08:33N 35°17' E 139°41'1 1.1
2016-Aug-22 07:33N 35°17' E 139°40'0 0.0
2016-Aug-22 06:33N 35°17' E 139°40'0 0.0
2016-Aug-22 05:33N 35°17' E 139°40'0 0.0
2016-Aug-22 04:33N 35°17' E 139°40'0 0.0
2016-Aug-22 03:33N 35°17' E 139°40'0 0.0
2016-Aug-22 02:33N 35°17' E 139°40'0 0.0
2016-Aug-22 01:30N 35°17' E 139°40'0 0.0
2016-Aug-22 00:33N 35°17' E 139°40'1 1.3
2016-Aug-21 23:34N 35°18' E 139°41'1 1.1
2016-Aug-21 22:19N 35°17' E 139°41'0 0.0
2016-Aug-21 21:33N 35°17' E 139°41'0 0.0
2016-Aug-21 20:33N 35°17' E 139°41'0 0.0
2016-Aug-21 19:33N 35°17' E 139°41'0 0.0
2016-Aug-21 18:33N 35°17' E 139°41'0 0.0
2016-Aug-21 17:32N 35°17' E 139°41'0 0.0
2016-Aug-21 16:33N 35°17' E 139°41'0 0.0
2016-Aug-21 15:33N 35°17' E 139°41'0 0.0
2016-Aug-21 14:33N 35°17' E 139°41'0 0.0
2016-Aug-21 13:33N 35°17' E 139°41'0 0.0
2016-Aug-21 11:19N 35°17' E 139°41'0 0.0
2016-Aug-21 10:33N 35°17' E 139°41'0 0.0
2016-Aug-21 09:21N 35°17' E 139°41'5 5.8
2016-Aug-21 08:33N 35°21' E 139°43'3 2.7
2016-Aug-21 07:34N 35°19' E 139°44'9 8.9
2016-Aug-21 06:32N 35°10' E 139°47'4 4.5
2016-Aug-21 05:34N 35°13' E 139°43'5 5.1
2016-Aug-21 04:33N 35°18' E 139°44'9 8.8
2016-Aug-21 03:33N 35°27' E 139°47'9 8.9
2016-Aug-21 02:33N 35°32' E 139°56'6 6.0
2016-Aug-21 01:33N 35°27' E 139°51'1111.2
2016-Aug-21 00:33N 35°18' E 139°43'2 2.3
2016-Aug-20 23:33N 35°17' E 139°41'0 0.0
2016-Aug-20 22:33N 35°17' E 139°41'  
Track history (hours):
 
Tides and Currents Weather Stations Pressure Air Temp Water Temp Dewpoint Dewpoint Depression Visibility Wind Speed Wind Dir Waves Ship Positions

Uraga Maru

Last reported at 2016-Aug-30 08:34 UTC. Time now 2016-Aug-30 09:09 UTC.
Position N 35°23' E 139°42'.

Length 40 m; draft 2.8 m.

Type: Tug. MMSI: 431101119.

Date/timePositionNaut miles runAvg speedWind from/ knotsBaromVisibWave heightAir tempDewpointWater temp
2016-Aug-30 08:34N 35°23' E 139°42'1010.3
2016-Aug-30 07:34N 35°13' E 139°47'4 4.4
2016-Aug-30 06:33N 35°17' E 139°44'3 2.9
2016-Aug-30 05:29N 35°17' E 139°41'0 0.0
2016-Aug-30 01:30N 35°17' E 139°41'0 0.0
2016-Aug-30 00:31N 35°17' E 139°41'0 0.0
2016-Aug-29 23:33N 35°17' E 139°41'0 0.0
2016-Aug-29 20:31N 35°17' E 139°41'0 0.0
2016-Aug-29 19:32N 35°17' E 139°41'0 0.0
2016-Aug-29 18:32N 35°17' E 139°41'0 0.0
2016-Aug-29 17:26N 35°17' E 139°41'0 0.0
2016-Aug-29 16:33N 35°17' E 139°41'0 0.0
2016-Aug-29 15:33N 35°17' E 139°41'0 0.0
2016-Aug-29 14:33N 35°17' E 139°41'0 0.0
2016-Aug-29 13:34N 35°17' E 139°41'0 0.0
2016-Aug-29 12:33N 35°17' E 139°41'0 0.0
2016-Aug-29 11:27N 35°17' E 139°41'0 0.0
2016-Aug-29 03:30N 35°17' E 139°41'0 0.0
2016-Aug-28 23:13N 35°17' E 139°41'4 5.7
2016-Aug-28 22:33N 35°16' E 139°45'3 2.8
2016-Aug-28 21:32N 35°13' E 139°46'1010.2
2016-Aug-28 20:34N 35°23' E 139°43'5 5.3
2016-Aug-28 19:33N 35°18' E 139°44'4 3.9
2016-Aug-28 18:26N 35°13' E 139°43'0 0.0
2016-Aug-28 16:29N 35°13' E 139°43'0 0.0
2016-Aug-28 11:24N 35°13' E 139°43'4 4.5
2016-Aug-28 10:33N 35°17' E 139°45'7 7.5
2016-Aug-28 09:33N 35°24' E 139°44'0 0.1
2016-Aug-28 08:33N 35°24' E 139°45'2 2.0
2016-Aug-28 07:33N 35°22' E 139°45'1111.3
2016-Aug-28 06:33N 35°11' E 139°47'6 2.8
2016-Aug-28 04:32N 35°17' E 139°45'1111.6
2016-Aug-28 03:34N 35°28' E 139°48'8 7.8
2016-Aug-28 02:33N 35°29' E 139°58'3 2.6
2016-Aug-28 01:33N 35°28' E 139°55'1010.3
2016-Aug-28 00:33N 35°21' E 139°46'5 5.3
2016-Aug-27 23:32N 35°17' E 139°41'0 0.0
2016-Aug-27 22:33N 35°17' E 139°41'0 0.0
2016-Aug-27 21:33N 35°17' E 139°41'0 0.0
2016-Aug-27 20:33N 35°17' E 139°41'0 0.0
2016-Aug-27 19:33N 35°17' E 139°41'0 0.0
2016-Aug-27 18:33N 35°17' E 139°41'0 0.0
2016-Aug-27 17:32N 35°17' E 139°41'0 0.0
2016-Aug-27 16:33N 35°17' E 139°41'0 0.0
2016-Aug-27 15:33N 35°17' E 139°41'0 0.0
2016-Aug-27 14:33N 35°17' E 139°41'0 0.0
2016-Aug-27 13:33N 35°17' E 139°41'0 0.0
2016-Aug-27 12:33N 35°17' E 139°41'0 0.0
2016-Aug-27 11:33N 35°17' E 139°41'0 0.0
2016-Aug-27 10:32N 35°17' E 139°41'0 0.0
2016-Aug-27 09:31N 35°17' E 139°41'0 0.0
2016-Aug-27 08:32N 35°17' E 139°41'0 0.0
2016-Aug-27 07:33N 35°17' E 139°41'0 0.0
2016-Aug-27 06:33N 35°17' E 139°41'0 0.0
2016-Aug-27 04:33N 35°17' E 139°41'0 0.0
2016-Aug-27 03:33N 35°17' E 139°41'6 5.9
2016-Aug-27 02:33N 35°13' E 139°46'1010.1
2016-Aug-27 01:34N 35°23' E 139°42'8 7.6
2016-Aug-27 00:33N 35°29' E 139°47'6 6.3
2016-Aug-26 23:33N 35°23' E 139°46'1111.5
2016-Aug-26 22:34N 35°11' E 139°47'4 3.4
2016-Aug-26 21:27N 35°13' E 139°43'3 2.8
2016-Aug-26 20:33N 35°13' E 139°46'10 9.6
2016-Aug-26 19:34N 35°22' E 139°42'2 1.6
2016-Aug-26 18:33N 35°20' E 139°42'3 3.3
2016-Aug-26 17:33N 35°17' E 139°41'0 0.0
2016-Aug-26 16:32N 35°17' E 139°41'0 0.0
2016-Aug-26 15:31N 35°17' E 139°41'0 0.0
2016-Aug-26 14:33N 35°17' E 139°41'0 0.0
2016-Aug-26 13:31N 35°17' E 139°41'5 5.4
2016-Aug-26 12:30N 35°14' E 139°46'9 9.0
2016-Aug-26 11:33N 35°22' E 139°42'3 2.7
2016-Aug-26 10:33N 35°24' E 139°45'0 0.0
2016-Aug-26 09:33N 35°24' E 139°45'0 0.0
2016-Aug-26 08:33N 35°24' E 139°45'5 5.1
2016-Aug-26 07:33N 35°19' E 139°44'8 8.2
2016-Aug-26 06:33N 35°11' E 139°47'15 7.6
2016-Aug-26 04:34N 35°26' E 139°44'3 2.9
2016-Aug-26 03:34N 35°23' E 139°46'1110.8
2016-Aug-26 02:33N 35°12' E 139°47'3 3.3
2016-Aug-26 01:33N 35°13' E 139°43'5 4.7
2016-Aug-26 00:34N 35°18' E 139°43'2 2.1
2016-Aug-25 23:33N 35°17' E 139°41'0 0.0
2016-Aug-25 22:34N 35°17' E 139°41'0 0.0
2016-Aug-25 21:24N 35°17' E 139°41'0 0.0
2016-Aug-25 17:13N 35°17' E 139°41'0 0.0
2016-Aug-25 16:31N 35°17' E 139°41'0 0.0
2016-Aug-25 15:32N 35°17' E 139°41'0 0.0
2016-Aug-25 14:33N 35°17' E 139°41'0 0.0
2016-Aug-25 06:07N 35°17' E 139°41'0 0.0
2016-Aug-25 04:32N 35°17' E 139°41'0 0.0
2016-Aug-25 03:33N 35°17' E 139°41'0 0.0
2016-Aug-25 02:31N 35°17' E 139°41'2 2.6
2016-Aug-25 01:34N 35°19' E 139°42'2 2.3
2016-Aug-25 00:33N 35°20' E 139°44'1010.2
2016-Aug-24 23:33N 35°10' E 139°47'8 8.5
2016-Aug-24 22:34N 35°18' E 139°43'5 4.6
2016-Aug-24 21:33N 35°22' E 139°44'4 3.8
2016-Aug-24 20:33N 35°19' E 139°44'8 7.7
2016-Aug-24 19:32N 35°11' E 139°47'4 3.6
2016-Aug-24 18:26N 35°13' E 139°43'0 0.0
2016-Aug-24 17:24N 35°13' E 139°43'0 0.0
2016-Aug-24 16:30N 35°13' E 139°43'0 0.0
2016-Aug-24 15:31N 35°13' E 139°43'0 0.0
2016-Aug-24 14:33N 35°13' E 139°43'0 0.0
2016-Aug-24 13:27N 35°13' E 139°43'0 0.0
2016-Aug-24 12:33N 35°13' E 139°43'0 0.0
2016-Aug-24 11:26N 35°13' E 139°43'4 4.3
2016-Aug-24 10:33N 35°17' E 139°45'1110.5
2016-Aug-24 09:33N 35°27' E 139°42'5 5.3
2016-Aug-24 08:33N 35°28' E 139°48'5 4.7
2016-Aug-24 07:33N 35°30' E 139°54'1111.3
2016-Aug-24 06:33N 35°21' E 139°45'8 4.1
2016-Aug-24 04:33N 35°13' E 139°43'0 0.0
2016-Aug-24 03:33N 35°13' E 139°43'6 5.7
2016-Aug-24 02:33N 35°19' E 139°43'9 8.8
2016-Aug-24 01:33N 35°28' E 139°44'6 6.3
2016-Aug-24 00:33N 35°22' E 139°42'5 2.4
2016-Aug-23 22:33N 35°17' E 139°41'2 2.1
2016-Aug-23 21:33N 35°18' E 139°43'2 2.2
2016-Aug-23 20:33N 35°17' E 139°41'0 0.0
2016-Aug-23 19:33N 35°17' E 139°41'0 0.0
2016-Aug-23 18:33N 35°17' E 139°41'0 0.0
2016-Aug-23 17:33N 35°17' E 139°41'0 0.0
2016-Aug-23 16:33N 35°17' E 139°41'0 0.0
2016-Aug-23 15:33N 35°17' E 139°41'0 0.0
2016-Aug-23 14:33N 35°17' E 139°41'0 0.0
2016-Aug-23 13:33N 35°17' E 139°41'0 0.0
2016-Aug-23 12:27N 35°17' E 139°41'0 0.0
2016-Aug-23 11:26N 35°17' E 139°41'0 0.0
2016-Aug-23 10:24N 35°17' E 139°41'0 0.0
2016-Aug-23 09:31N 35°17' E 139°41'0 0.0
2016-Aug-23 08:33N 35°17' E 139°41'0 0.0
2016-Aug-23 07:33N 35°17' E 139°41'0 0.0
2016-Aug-23 06:33N 35°17' E 139°41'0 0.2
2016-Aug-23 05:33N 35°17' E 139°41'7 7.2
2016-Aug-23 04:33N 35°23' E 139°46'8 8.3
2016-Aug-23 03:33N 35°14' E 139°47'1 1.1
2016-Aug-23 02:19N 35°15' E 139°46'5 1.6
2016-Aug-22 23:23N 35°17' E 139°41'1 1.4
2016-Aug-22 22:33N 35°17' E 139°39'7 6.9
2016-Aug-22 21:33N 35°23' E 139°44'7 7.1
2016-Aug-22 20:33N 35°16' E 139°46'1 1.4
2016-Aug-22 19:34N 35°15' E 139°46'5 4.7
2016-Aug-22 18:33N 35°17' E 139°41'0 0.0
2016-Aug-22 17:27N 35°17' E 139°41'0 0.0
2016-Aug-22 16:33N 35°17' E 139°41'0 0.0
2016-Aug-22 15:30N 35°17' E 139°41'0 0.0
2016-Aug-22 14:19N 35°17' E 139°41'0 0.0
2016-Aug-22 13:19N 35°17' E 139°41'0 0.0
2016-Aug-22 12:26N 35°17' E 139°41'0 0.0
2016-Aug-22 11:20N 35°17' E 139°41'0 0.0
2016-Aug-22 10:31N 35°17' E 139°41'1 0.3
2016-Aug-22 08:33N 35°17' E 139°41'1 1.1
2016-Aug-22 07:33N 35°17' E 139°40'0 0.0
2016-Aug-22 06:33N 35°17' E 139°40'0 0.0
2016-Aug-22 05:33N 35°17' E 139°40'0 0.0
2016-Aug-22 04:33N 35°17' E 139°40'0 0.0
2016-Aug-22 03:33N 35°17' E 139°40'0 0.0
2016-Aug-22 02:33N 35°17' E 139°40'0 0.0
2016-Aug-22 01:30N 35°17' E 139°40'0 0.0
2016-Aug-22 00:33N 35°17' E 139°40'1 1.3
2016-Aug-21 23:34N 35°18' E 139°41'1 1.1
2016-Aug-21 22:19N 35°17' E 139°41'0 0.0
2016-Aug-21 21:33N 35°17' E 139°41'0 0.0
2016-Aug-21 20:33N 35°17' E 139°41'0 0.0
2016-Aug-21 19:33N 35°17' E 139°41'0 0.0
2016-Aug-21 18:33N 35°17' E 139°41'0 0.0
2016-Aug-21 17:32N 35°17' E 139°41'0 0.0
2016-Aug-21 16:33N 35°17' E 139°41'0 0.0
2016-Aug-21 15:33N 35°17' E 139°41'0 0.0
2016-Aug-21 14:33N 35°17' E 139°41'0 0.0
2016-Aug-21 13:33N 35°17' E 139°41'0 0.0
2016-Aug-21 11:19N 35°17' E 139°41'0 0.0
2016-Aug-21 10:33N 35°17' E 139°41'0 0.0
2016-Aug-21 09:21N 35°17' E 139°41'5 5.8
2016-Aug-21 08:33N 35°21' E 139°43'3 2.7
2016-Aug-21 07:34N 35°19' E 139°44'9 8.9
2016-Aug-21 06:32N 35°10' E 139°47'4 4.5
2016-Aug-21 05:34N 35°13' E 139°43'5 5.1
2016-Aug-21 04:33N 35°18' E 139°44'9 8.8
2016-Aug-21 03:33N 35°27' E 139°47'9 8.9
2016-Aug-21 02:33N 35°32' E 139°56'6 6.0
2016-Aug-21 01:33N 35°27' E 139°51'1111.2
2016-Aug-21 00:33N 35°18' E 139°43'2 2.3
2016-Aug-20 23:33N 35°17' E 139°41'0 0.0
2016-Aug-20 22:33N 35°17' E 139°41'  

Dump ship's entire track history